Time;durP1;ratioP1;P1;durP2;ratioP2;P2;SDS_P1;SDS_P2;PMS_P1;PMS_P2;Temp;Humidity;BMP_temperature;BMP_pressure;BME280_temperature;BME280_humidity;BME280_pressure;Samples;Min_cycle;Max_cycle;Signal;HPM_P1;HPM_P2
2022/09/09 00:00:48;;;;;;;0.93;0.80;;;27.00;51.70;;;;;;5052172;28;20314;-65
2022/09/09 00:03:23;;;;;;;1.58;0.80;;;27.00;51.80;;;;;;5052086;28;20048;-66
2022/09/09 00:06:05;;;;;;;1.10;0.70;;;27.00;51.80;;;;;;5051894;28;20032;-66
2022/09/09 00:08:41;;;;;;;1.30;0.80;;;26.90;51.80;;;;;;5052196;28;20550;-65
2022/09/09 00:11:12;;;;;;;0.75;0.68;;;26.90;51.70;;;;;;5052194;28;20036;-66
2022/09/09 00:13:47;;;;;;;1.15;0.70;;;26.90;51.80;;;;;;5051960;28;20055;-65
2022/09/09 00:16:23;;;;;;;0.88;0.70;;;26.90;51.80;;;;;;5050809;28;20112;-66
2022/09/09 00:19:12;;;;;;;1.30;0.80;;;26.80;51.80;;;;;;5051868;28;20036;-66
2022/09/09 00:21:48;;;;;;;1.30;0.80;;;26.80;51.90;;;;;;5052222;28;20074;-64
2022/09/09 00:24:29;;;;;;;1.08;0.80;;;26.80;51.90;;;;;;5051533;28;20028;-65
2022/09/09 00:27:06;;;;;;;0.93;0.80;;;26.80;51.90;;;;;;5050571;28;20040;-65
2022/09/09 00:29:58;;;;;;;1.23;0.90;;;26.80;52.00;;;;;;5051810;28;20895;-65
2022/09/09 00:32:35;;;;;;;0.95;0.80;;;26.70;51.90;;;;;;5031039;28;20133;-66
2022/09/09 00:35:15;;;;;;;1.00;0.80;;;26.70;52.00;;;;;;5031971;28;20504;-66
2022/09/09 00:37:42;;;;;;;1.00;0.80;;;26.70;52.00;;;;;;5031894;28;20049;-66
2022/09/09 00:40:45;;;;;;;1.05;0.80;;;26.70;52.00;;;;;;5031669;28;20492;-66
2022/09/09 00:43:21;;;;;;;0.93;0.77;;;26.70;52.00;;;;;;5016291;28;20373;-65
2022/09/09 00:46:26;;;;;;;1.20;0.70;;;26.70;52.10;;;;;;5031398;28;20061;-65
2022/09/09 00:49:13;;;;;;;1.15;0.70;;;26.70;52.10;;;;;;5030299;28;20489;-67
2022/09/09 00:52:03;;;;;;;0.70;0.63;;;26.60;52.00;;;;;;5030011;28;20026;-67
2022/09/09 00:54:44;;;;;;;1.20;0.88;;;26.60;52.00;;;;;;5030104;28;20026;-66
2022/09/09 00:57:09;;;;;;;0.98;0.80;;;26.60;52.10;;;;;;5031590;28;20033;-65
2022/09/09 00:59:57;;;;;;;1.00;0.82;;;26.60;52.10;;;;;;5031416;28;20503;-66
2022/09/09 01:02:44;;;;;;;1.08;0.80;;;26.60;52.10;;;;;;5029433;28;20072;-64
2022/09/09 01:05:19;;;;;;;1.15;0.80;;;26.60;52.20;;;;;;5029405;28;20021;-65
2022/09/09 01:07:48;;;;;;;1.77;0.70;;;26.50;52.10;;;;;;5029342;28;20033;-65
2022/09/09 01:10:20;;;;;;;;;;;26.50;52.10;;;;;;5031805;28;20029;-65
2022/09/09 01:12:48;;;;;;;0.80;0.80;;;26.50;52.10;;;;;;5030993;28;19956;-65
2022/09/09 01:15:19;;;;;;;1.08;0.70;;;26.50;52.10;;;;;;5031192;28;20543;-65
2022/09/09 01:17:45;;;;;;;0.75;0.70;;;26.50;52.10;;;;;;5031022;28;20065;-66
2022/09/09 01:20:30;;;;;;;0.82;0.70;;;26.50;52.20;;;;;;5031194;28;20080;-66
2022/09/09 01:23:27;;;;;;;0.80;0.80;;;26.40;52.10;;;;;;5031126;28;20435;-65
2022/09/09 01:26:40;;;;;;;0.93;0.70;;;26.40;52.10;;;;;;5030101;28;20037;-66
2022/09/09 01:29:14;;;;;;;1.08;0.70;;;26.40;52.10;;;;;;5009169;28;20080;-65
2022/09/09 01:31:51;;;;;;;1.05;0.70;;;26.40;52.20;;;;;;5028789;28;20053;-65
2022/09/09 01:34:17;;;;;;;1.08;0.70;;;26.40;52.20;;;;;;5030680;28;20078;-65
2022/09/09 01:36:50;;;;;;;0.68;0.60;;;26.40;52.20;;;;;;5030818;28;20029;-65
2022/09/09 01:39:16;;;;;;;1.20;0.70;;;26.30;52.20;;;;;;5030726;28;20028;-67
2022/09/09 01:41:42;;;;;;;0.85;0.75;;;26.30;52.20;;;;;;5030701;28;20349;-66
2022/09/09 01:44:09;;;;;;;1.17;0.73;;;26.30;52.20;;;;;;5030780;28;20017;-66
2022/09/09 01:46:35;;;;;;;1.08;0.60;;;26.30;52.20;;;;;;5030665;28;20025;-66
2022/09/09 01:49:03;;;;;;;0.70;0.70;;;26.30;52.20;;;;;;5030730;28;20148;-65
2022/09/09 01:51:30;;;;;;;0.80;0.68;;;26.30;52.20;;;;;;5030014;28;20103;-64
2022/09/09 01:53:55;;;;;;;0.95;0.70;;;26.30;52.20;;;;;;5030625;28;20022;-65
2022/09/09 01:56:42;;;;;;;0.75;0.65;;;26.30;52.30;;;;;;5030675;28;20033;-65
2022/09/09 01:59:12;;;;;;;0.63;0.60;;;26.30;52.20;;;;;;5029022;28;20018;-65
2022/09/09 02:02:01;;;;;;;0.70;0.70;;;26.30;52.20;;;;;;5030071;28;20026;-66
2022/09/09 02:05:15;;;;;;;0.50;0.50;;;26.30;52.30;;;;;;5029082;28;20026;-65
2022/09/09 02:07:46;;;;;;;0.60;0.60;;;26.30;52.20;;;;;;5024171;28;20041;-65
2022/09/09 02:10:28;;;;;;;0.88;0.80;;;26.30;52.30;;;;;;5030675;28;20108;-65
2022/09/09 02:13:15;;;;;;;0.70;0.70;;;26.30;52.30;;;;;;5029474;28;20457;-66
2022/09/09 02:15:52;;;;;;;0.77;0.63;;;26.20;52.20;;;;;;5029630;28;20132;-66
2022/09/09 02:18:27;;;;;;;0.80;0.70;;;26.20;52.20;;;;;;5029718;28;20025;-65
2022/09/09 02:20:53;;;;;;;0.80;0.73;;;26.20;52.20;;;;;;5029843;28;20080;-66
2022/09/09 02:23:20;;;;;;;1.00;0.70;;;26.20;52.30;;;;;;5030344;28;20030;-66
2022/09/09 02:25:48;;;;;;;0.90;0.70;;;26.20;52.30;;;;;;5030100;28;20496;-65
2022/09/09 02:28:16;;;;;;;0.68;0.65;;;26.20;52.30;;;;;;5030403;28;20476;-65
2022/09/09 02:30:46;;;;;;;0.88;0.70;;;26.20;52.30;;;;;;5029939;28;20477;-65
2022/09/09 02:33:14;;;;;;;0.80;0.60;;;26.20;52.30;;;;;;5030221;28;20079;-65
2022/09/09 02:35:42;;;;;;;1.10;0.70;;;26.20;52.30;;;;;;5030345;28;20112;-66
2022/09/09 02:38:12;;;;;;;0.77;0.70;;;26.20;52.30;;;;;;5031907;28;20033;-66
2022/09/09 02:40:38;;;;;;;0.60;0.60;;;26.20;52.30;;;;;;5033298;28;20068;-65
2022/09/09 02:43:04;;;;;;;0.65;0.60;;;26.20;52.30;;;;;;5033937;28;20052;-65
2022/09/09 02:45:42;;;;;;;0.73;0.70;;;26.20;52.30;;;;;;5033853;28;20036;-65
2022/09/09 02:48:58;;;;;;;0.68;0.52;;;26.10;52.30;;;;;;5033504;28;20358;-65
2022/09/09 02:51:23;;;;;;;0.80;0.70;;;26.10;52.30;;;;;;4934028;29;20038;-65
2022/09/09 02:54:03;;;;;;;1.20;0.70;;;26.10;52.30;;;;;;4934110;29;20458;-66
2022/09/09 02:56:33;;;;;;;0.63;0.57;;;26.10;52.30;;;;;;4989604;28;20355;-65
2022/09/09 02:58:59;;;;;;;0.90;0.65;;;26.10;52.40;;;;;;5033320;28;20025;-66
2022/09/09 03:01:25;;;;;;;0.73;0.60;;;26.10;52.30;;;;;;5006575;28;20045;-65
2022/09/09 03:03:50;;;;;;;0.60;0.60;;;26.10;52.40;;;;;;5033543;28;20025;-65
2022/09/09 03:06:16;;;;;;;0.55;0.55;;;26.10;52.40;;;;;;5033641;28;20067;-65
2022/09/09 03:08:42;;;;;;;0.60;0.60;;;26.00;52.30;;;;;;5032952;28;20061;-66
2022/09/09 03:11:09;;;;;;;0.60;0.60;;;26.10;52.40;;;;;;5033487;28;20496;-65
2022/09/09 03:13:34;;;;;;;0.50;0.50;;;26.00;52.30;;;;;;5033225;28;20519;-65
2022/09/09 03:16:00;;;;;;;0.60;0.60;;;26.10;52.40;;;;;;5033219;28;20029;-65
2022/09/09 03:18:26;;;;;;;0.70;0.57;;;26.00;52.30;;;;;;5033378;28;20033;-65
2022/09/09 03:20:53;;;;;;;0.70;0.50;;;26.00;52.30;;;;;;5033222;28;20159;-65
2022/09/09 03:23:21;;;;;;;0.70;0.55;;;26.00;52.30;;;;;;5033060;28;20029;-65
2022/09/09 03:25:48;;;;;;;0.85;0.60;;;26.00;52.30;;;;;;5033153;28;20028;-65
2022/09/09 03:28:14;;;;;;;0.57;0.55;;;26.00;52.30;;;;;;5033091;28;20088;-66
2022/09/09 03:30:40;;;;;;;0.70;0.70;;;26.00;52.30;;;;;;5032549;28;20060;-65
2022/09/09 03:33:06;;;;;;;0.60;0.60;;;26.00;52.30;;;;;;5033184;28;20413;-65
2022/09/09 03:35:31;;;;;;;0.52;0.52;;;26.00;52.30;;;;;;5023156;28;20029;-65
2022/09/09 03:37:57;;;;;;;1.13;0.60;;;26.00;52.30;;;;;;5033125;28;20029;-66
2022/09/09 03:40:23;;;;;;;0.60;0.60;;;26.00;52.30;;;;;;5033080;28;20083;-66
2022/09/09 03:42:48;;;;;;;0.57;0.57;;;26.00;52.30;;;;;;5032938;28;20025;-65
2022/09/09 03:45:14;;;;;;;0.50;0.50;;;26.00;52.40;;;;;;5033049;28;20116;-65
2022/09/09 03:47:39;;;;;;;0.57;0.50;;;26.00;52.30;;;;;;5032719;28;20433;-66
2022/09/09 03:50:08;;;;;;;0.57;0.55;;;26.00;52.30;;;;;;5032135;28;20026;-65
2022/09/09 03:52:38;;;;;;;0.52;0.52;;;25.90;52.30;;;;;;5032883;28;20048;-65
2022/09/09 03:55:05;;;;;;;0.60;0.60;;;25.90;52.30;;;;;;5032171;28;20416;-66
2022/09/09 03:57:31;;;;;;;0.50;0.50;;;25.90;52.30;;;;;;5031360;28;20029;-66
2022/09/09 03:59:57;;;;;;;0.63;0.60;;;25.90;52.30;;;;;;5032616;28;20022;-66
2022/09/09 04:02:24;;;;;;;0.55;0.52;;;25.90;52.30;;;;;;5031821;28;20041;-66
2022/09/09 04:04:49;;;;;;;0.60;0.60;;;25.90;52.30;;;;;;5031904;28;20022;-66
2022/09/09 04:07:15;;;;;;;0.68;0.50;;;25.90;52.40;;;;;;5031717;28;20430;-66
2022/09/09 04:09:41;;;;;;;0.63;0.55;;;25.90;52.30;;;;;;5032387;28;20026;-66
2022/09/09 04:12:07;;;;;;;0.60;0.55;;;25.90;52.30;;;;;;5032532;28;20040;-66
2022/09/09 04:14:32;;;;;;;0.88;0.60;;;25.90;52.30;;;;;;5032291;28;20103;-66
2022/09/09 04:16:59;;;;;;;0.60;0.60;;;25.90;52.30;;;;;;5032155;28;20057;-66
2022/09/09 04:19:25;;;;;;;0.68;0.65;;;25.80;52.30;;;;;;5032493;28;20060;-66
2022/09/09 04:21:51;;;;;;;0.60;0.60;;;25.80;52.30;;;;;;5032199;28;20033;-66
2022/09/09 04:24:17;;;;;;;0.60;0.60;;;25.80;52.30;;;;;;5032177;28;20473;-66
2022/09/09 04:26:43;;;;;;;0.70;0.60;;;25.80;52.30;;;;;;5032236;28;20026;-66
2022/09/09 04:29:08;;;;;;;0.60;0.60;;;25.80;52.30;;;;;;5032362;28;20030;-66
2022/09/09 04:31:34;;;;;;;0.57;0.57;;;25.80;52.30;;;;;;5031420;28;20116;-66
2022/09/09 04:34:05;;;;;;;0.90;0.60;;;25.80;52.30;;;;;;5032030;28;20028;-66
2022/09/09 04:36:31;;;;;;;0.50;0.50;;;25.80;52.30;;;;;;5031904;28;20496;-66
2022/09/09 04:38:57;;;;;;;0.50;0.50;;;25.80;52.30;;;;;;5030153;28;20104;-66
2022/09/09 04:41:23;;;;;;;0.90;0.60;;;25.80;52.30;;;;;;5030631;28;20501;-66
2022/09/09 04:43:49;;;;;;;0.52;0.52;;;25.80;52.30;;;;;;5031797;28;20116;-65
2022/09/09 04:46:17;;;;;;;0.40;0.40;;;25.80;52.30;;;;;;5031729;28;20104;-66
2022/09/09 04:48:43;;;;;;;0.40;0.40;;;25.80;52.30;;;;;;5031760;28;20022;-66
2022/09/09 04:51:12;;;;;;;0.55;0.55;;;25.80;52.30;;;;;;5031107;28;20481;-66
2022/09/09 04:53:40;;;;;;;0.50;0.50;;;25.80;52.30;;;;;;5031644;28;20040;-66
2022/09/09 04:56:11;;;;;;;0.45;0.43;;;25.70;52.20;;;;;;5031575;28;20025;-66
2022/09/09 04:58:37;;;;;;;0.57;0.50;;;25.70;52.20;;;;;;5029393;28;20061;-66
2022/09/09 05:01:07;;;;;;;0.43;0.40;;;25.70;52.20;;;;;;5031223;28;20026;-66
2022/09/09 05:03:33;;;;;;;0.40;0.40;;;25.80;52.30;;;;;;5030702;28;20025;-66
2022/09/09 05:06:16;;;;;;;0.60;0.50;;;25.70;52.30;;;;;;5031018;28;20021;-66
2022/09/09 05:08:44;;;;;;;0.70;0.60;;;25.70;52.30;;;;;;5030591;28;20646;-66
2022/09/09 05:11:13;;;;;;;0.73;0.60;;;25.70;52.30;;;;;;5030008;28;20030;-66
2022/09/09 05:13:40;;;;;;;0.50;0.50;;;25.70;52.30;;;;;;5031042;28;20045;-66
2022/09/09 05:16:05;;;;;;;0.50;0.50;;;25.70;52.30;;;;;;5031168;28;20502;-66
2022/09/09 05:18:31;;;;;;;0.52;0.50;;;25.70;52.30;;;;;;5031166;28;20029;-66
2022/09/09 05:21:00;;;;;;;0.52;0.52;;;25.70;52.30;;;;;;5031109;28;20029;-66
2022/09/09 05:23:26;;;;;;;0.40;0.40;;;25.70;52.30;;;;;;5030991;28;20029;-66
2022/09/09 05:25:57;;;;;;;0.55;0.55;;;25.70;52.30;;;;;;5030961;28;20113;-65
2022/09/09 05:28:27;;;;;;;0.50;0.50;;;25.70;52.30;;;;;;5030963;28;20536;-66
2022/09/09 05:31:07;;;;;;;;;;;25.70;52.80;;;;;;5031015;28;20033;-66
2022/09/09 05:33:34;;;;;;;0.93;0.50;;;25.70;52.30;;;;;;5030895;28;19908;-66
2022/09/09 05:36:02;;;;;;;0.40;0.40;;;25.70;52.20;;;;;;5030936;28;20071;-66
2022/09/09 05:38:28;;;;;;;0.40;0.40;;;25.70;52.20;;;;;;5029977;28;20060;-66
2022/09/09 05:40:56;;;;;;;0.90;0.60;;;25.70;52.20;;;;;;5030841;28;20095;-66
2022/09/09 05:43:23;;;;;;;0.68;0.60;;;25.70;52.20;;;;;;5030786;28;20030;-66
2022/09/09 05:45:59;;;;;;;0.63;0.60;;;25.70;52.30;;;;;;5029234;28;20489;-66
2022/09/09 05:48:28;;;;;;;0.75;0.60;;;25.70;52.30;;;;;;5030753;28;20031;-66
2022/09/09 05:50:54;;;;;;;0.50;0.50;;;25.60;52.20;;;;;;5030722;28;20469;-66
2022/09/09 05:53:20;;;;;;;0.88;0.60;;;25.60;52.20;;;;;;5030583;28;20021;-66
2022/09/09 05:55:45;;;;;;;0.50;0.50;;;25.70;52.30;;;;;;5031057;28;20436;-66
2022/09/09 05:58:11;;;;;;;0.47;0.47;;;25.70;52.30;;;;;;5030710;28;20040;-67
2022/09/09 06:00:37;;;;;;;0.50;0.45;;;25.70;52.30;;;;;;5030281;28;20056;-67
2022/09/09 06:03:03;;;;;;;0.55;0.50;;;25.70;52.20;;;;;;5030501;28;20022;-66
2022/09/09 06:05:30;;;;;;;0.55;0.50;;;25.70;52.20;;;;;;5030711;28;20022;-67
2022/09/09 06:07:55;;;;;;;0.50;0.50;;;25.80;52.20;;;;;;5030615;28;20049;-67
2022/09/09 06:10:22;;;;;;;0.80;0.40;;;25.80;52.10;;;;;;5030609;28;20060;-67
2022/09/09 06:12:47;;;;;;;0.50;0.50;;;25.80;52.00;;;;;;5031797;28;20481;-67
2022/09/09 06:15:13;;;;;;;0.50;0.50;;;25.90;52.00;;;;;;5034395;28;20132;-67
2022/09/09 06:17:39;;;;;;;0.88;0.60;;;25.90;51.90;;;;;;5016794;28;20041;-67
2022/09/09 06:20:05;;;;;;;0.50;0.50;;;25.90;51.80;;;;;;5034536;28;20064;-67
2022/09/09 06:22:31;;;;;;;0.47;0.47;;;26.00;51.80;;;;;;5034424;28;20049;-67
2022/09/09 06:24:56;;;;;;;0.70;0.60;;;26.00;51.70;;;;;;5034459;28;20362;-67
2022/09/09 06:27:22;;;;;;;0.60;0.55;;;26.00;51.70;;;;;;5023948;28;20029;-67
2022/09/09 06:29:48;;;;;;;0.98;0.63;;;26.10;51.70;;;;;;5034288;28;20021;-66
2022/09/09 06:32:13;;;;;;;1.65;0.60;;;26.10;51.60;;;;;;5033657;28;20083;-67
2022/09/09 06:34:39;;;;;;;1.02;0.50;;;26.10;51.50;;;;;;5034015;28;20025;-67
2022/09/09 06:37:06;;;;;;;0.60;0.60;;;26.20;51.50;;;;;;5034109;28;20071;-67
2022/09/09 06:39:32;;;;;;;0.70;0.70;;;26.20;51.50;;;;;;5034099;28;20022;-67
2022/09/09 06:41:58;;;;;;;0.50;0.50;;;26.20;51.50;;;;;;5033911;28;20043;-67
2022/09/09 06:44:26;;;;;;;0.50;0.50;;;26.20;51.90;;;;;;5033006;28;20535;-67
2022/09/09 06:46:52;;;;;;;0.68;0.68;;;26.20;51.30;;;;;;5033863;28;20028;-67
2022/09/09 06:49:18;;;;;;;0.50;0.50;;;26.20;51.30;;;;;;5033816;28;20452;-66
2022/09/09 06:51:44;;;;;;;0.95;0.60;;;26.30;51.30;;;;;;5033893;28;20029;-66
2022/09/09 06:54:11;;;;;;;0.63;0.60;;;26.30;51.30;;;;;;5033648;28;20022;-67
2022/09/09 06:56:42;;;;;;;0.60;0.50;;;26.30;51.20;;;;;;5033176;28;20017;-66
2022/09/09 06:59:09;;;;;;;1.63;0.60;;;26.30;51.20;;;;;;5032456;28;20017;-66
2022/09/09 07:01:37;;;;;;;0.68;0.68;;;26.30;51.20;;;;;;5033227;28;20072;-66
2022/09/09 07:04:07;;;;;;;0.68;0.60;;;26.30;51.20;;;;;;5007167;28;20033;-66
2022/09/09 07:06:35;;;;;;;0.77;0.60;;;26.30;51.10;;;;;;5033607;28;20444;-66
2022/09/09 07:09:04;;;;;;;0.50;0.50;;;26.40;51.10;;;;;;5033522;28;20021;-66
2022/09/09 07:11:33;;;;;;;1.27;0.63;;;26.40;51.60;;;;;;5033589;28;20022;-66
2022/09/09 07:13:59;;;;;;;0.95;0.70;;;26.40;51.00;;;;;;5032896;28;20530;-66
2022/09/09 07:16:27;;;;;;;0.60;0.60;;;26.50;51.60;;;;;;5033344;28;20464;-66
2022/09/09 07:18:57;;;;;;;0.75;0.60;;;26.40;51.00;;;;;;5033187;28;20029;-66
2022/09/09 07:21:24;;;;;;;0.82;0.68;;;26.50;51.00;;;;;;5033483;28;20095;-66
2022/09/09 07:23:50;;;;;;;0.50;0.50;;;26.50;51.00;;;;;;5032483;28;20033;-66
2022/09/09 07:26:19;;;;;;;1.00;0.60;;;26.50;50.90;;;;;;5033047;28;20392;-66
2022/09/09 07:28:44;;;;;;;0.60;0.60;;;26.50;50.90;;;;;;5015673;28;20029;-66
2022/09/09 07:31:22;;;;;;;0.57;0.57;;;26.50;50.80;;;;;;5032596;28;20029;-66
2022/09/09 07:33:48;;;;;;;0.45;0.40;;;26.50;50.80;;;;;;5032502;28;20043;-67
2022/09/09 07:36:15;;;;;;;1.10;0.70;;;26.50;50.80;;;;;;5033112;28;20400;-67
2022/09/09 07:38:46;;;;;;;0.82;0.60;;;26.60;50.80;;;;;;5033220;28;20037;-66
2022/09/09 07:41:19;;;;;;;0.55;0.55;;;26.60;50.80;;;;;;5032656;28;20501;-66
2022/09/09 07:43:47;;;;;;;0.75;0.60;;;26.60;50.80;;;;;;5032981;28;20358;-66
2022/09/09 07:46:14;;;;;;;0.77;0.57;;;26.60;50.70;;;;;;5032927;28;20021;-66
2022/09/09 07:48:46;;;;;;;0.60;0.60;;;26.60;50.80;;;;;;5032585;28;20030;-67
2022/09/09 07:51:18;;;;;;;0.80;0.70;;;26.60;50.70;;;;;;5032946;28;20056;-66
2022/09/09 07:53:44;;;;;;;0.50;0.50;;;26.60;50.60;;;;;;5032843;28;20053;-66
2022/09/09 07:56:13;;;;;;;0.60;0.60;;;26.60;50.50;;;;;;5032296;28;20080;-66
2022/09/09 07:58:40;;;;;;;0.82;0.70;;;26.70;51.10;;;;;;5032620;28;20030;-66
2022/09/09 08:01:11;;;;;;;0.68;0.60;;;26.70;50.60;;;;;;5031064;28;20068;-66
2022/09/09 08:03:37;;;;;;;0.82;0.50;;;26.70;50.50;;;;;;5032302;28;20496;-66
2022/09/09 08:06:06;;;;;;;0.55;0.55;;;26.70;50.50;;;;;;5032509;28;20028;-65
2022/09/09 08:08:32;;;;;;;;;;;26.70;50.60;;;;;;5031689;28;20550;-65
2022/09/09 08:11:15;;;;;;;0.95;0.40;;;26.70;50.60;;;;;;5014471;28;19999;-65
2022/09/09 08:13:42;;;;;;;0.75;0.60;;;26.70;50.70;;;;;;5032103;28;20068;-65
2022/09/09 08:16:15;;;;;;;0.90;0.50;;;26.70;50.70;;;;;;5032162;28;20061;-65
2022/09/09 08:18:41;;;;;;;0.60;0.60;;;26.70;50.70;;;;;;5030522;28;20105;-65
2022/09/09 08:21:17;;;;;;;0.50;0.50;;;26.70;50.70;;;;;;5032251;28;20609;-65
2022/09/09 08:23:45;;;;;;;0.90;0.60;;;26.80;50.80;;;;;;5032085;28;20029;-65
2022/09/09 08:26:13;;;;;;;0.63;0.60;;;26.80;50.70;;;;;;5032254;28;20045;-65
2022/09/09 08:28:40;;;;;;;0.60;0.60;;;26.80;50.60;;;;;;5032102;28;20620;-65
2022/09/09 08:31:17;;;;;;;0.85;0.70;;;26.80;50.60;;;;;;5031430;28;20030;-65
2022/09/09 08:33:45;;;;;;;0.60;0.60;;;26.80;50.60;;;;;;5031218;28;20021;-65
2022/09/09 08:36:18;;;;;;;0.60;0.60;;;26.80;50.60;;;;;;5031138;28;20076;-65
2022/09/09 08:38:51;;;;;;;0.85;0.68;;;26.80;50.60;;;;;;5030315;28;20134;-65
2022/09/09 08:41:38;;;;;;;0.70;0.55;;;26.90;50.70;;;;;;5031089;28;20033;-65
2022/09/09 08:44:21;;;;;;;1.00;0.60;;;26.90;50.60;;;;;;5030715;28;20056;-64
2022/09/09 08:47:09;;;;;;;0.63;0.50;;;26.90;50.60;;;;;;5031621;28;20017;-64
2022/09/09 08:49:53;;;;;;;0.65;0.60;;;26.90;51.20;;;;;;5031702;28;20477;-64
2022/09/09 08:52:41;;;;;;;0.50;0.50;;;26.90;51.40;;;;;;5030730;28;20031;-64
2022/09/09 08:55:25;;;;;;;0.50;0.50;;;26.90;51.60;;;;;;5030896;28;20061;-67
2022/09/09 08:57:54;;;;;;;0.40;0.40;;;26.90;51.90;;;;;;5031627;28;20205;-65
2022/09/09 09:00:20;;;;;;;0.60;0.50;;;26.90;51.70;;;;;;5030832;28;20512;-64
2022/09/09 09:02:58;;;;;;;0.50;0.47;;;27.00;51.70;;;;;;5030631;28;20048;-65
2022/09/09 09:05:37;;;;;;;0.40;0.40;;;27.00;51.80;;;;;;5031357;28;20029;-65
2022/09/09 09:08:12;;;;;;;0.50;0.50;;;27.00;51.90;;;;;;5030568;28;20374;-64
2022/09/09 09:10:42;;;;;;;0.35;0.35;;;27.00;51.90;;;;;;5030382;28;20484;-64
2022/09/09 09:13:22;;;;;;;0.43;0.43;;;27.10;51.90;;;;;;5012876;28;20040;-64
2022/09/09 09:15:56;;;;;;;0.40;0.40;;;27.10;51.90;;;;;;5030542;28;20097;-65
2022/09/09 09:18:22;;;;;;;0.40;0.40;;;27.10;52.00;;;;;;5031162;28;20025;-65
2022/09/09 09:21:06;;;;;;;0.57;0.50;;;27.10;52.00;;;;;;5029465;28;20038;-64
2022/09/09 09:23:52;;;;;;;0.50;0.50;;;27.20;52.50;;;;;;5030993;28;20038;-64
2022/09/09 09:26:18;;;;;;;1.20;0.55;;;27.20;52.00;;;;;;5030760;28;20481;-64
2022/09/09 09:28:45;;;;;;;0.50;0.50;;;27.20;52.00;;;;;;5031087;28;20075;-65
2022/09/09 09:31:13;;;;;;;0.65;0.52;;;27.20;51.90;;;;;;5029844;28;20033;-64
2022/09/09 09:33:49;;;;;;;1.47;0.60;;;27.20;51.90;;;;;;5030214;28;20035;-64
2022/09/09 09:36:16;;;;;;;0.50;0.50;;;27.30;51.80;;;;;;5030879;28;20033;-65
2022/09/09 09:38:57;;;;;;;0.55;0.55;;;27.30;51.90;;;;;;5030767;28;20021;-65
2022/09/09 09:41:38;;;;;;;0.43;0.43;;;27.30;51.80;;;;;;5004375;28;20036;-66
2022/09/09 09:44:05;;;;;;;0.60;0.60;;;27.30;51.80;;;;;;5030516;28;20112;-66
2022/09/09 09:46:31;;;;;;;0.50;0.50;;;27.40;51.70;;;;;;5030817;28;20029;-66
2022/09/09 09:49:05;;;;;;;0.47;0.47;;;27.40;51.70;;;;;;5030304;28;20029;-66
2022/09/09 09:51:32;;;;;;;0.43;0.40;;;27.40;51.90;;;;;;5028616;28;20029;-65
2022/09/09 09:54:28;;;;;;;0.50;0.50;;;27.40;51.90;;;;;;5030748;28;20060;-66
2022/09/09 09:56:54;;;;;;;0.75;0.60;;;27.40;51.80;;;;;;4992130;28;20053;-66
2022/09/09 09:59:33;;;;;;;0.80;0.50;;;27.40;52.20;;;;;;5030646;28;20033;-66
2022/09/09 10:02:20;;;;;;;0.63;0.50;;;27.50;52.00;;;;;;5029653;28;20503;-66
2022/09/09 10:04:47;;;;;;;0.40;0.40;;;27.50;51.90;;;;;;5029712;28;20022;-65
2022/09/09 10:07:21;;;;;;;0.45;0.45;;;27.50;51.70;;;;;;5030603;28;20053;-66
2022/09/09 10:09:55;;;;;;;0.40;0.40;;;27.50;51.70;;;;;;5030668;28;20121;-66
2022/09/09 10:12:29;;;;;;;1.25;0.50;;;27.50;51.70;;;;;;5029976;28;20445;-66
2022/09/09 10:15:22;;;;;;;0.40;0.40;;;27.50;51.50;;;;;;5029041;28;20513;-66
2022/09/09 10:18:18;;;;;;;0.50;0.50;;;27.50;51.40;;;;;;5029906;28;20029;-65
2022/09/09 10:20:53;;;;;;;0.65;0.50;;;27.60;51.30;;;;;;5030497;28;20029;-65
2022/09/09 10:23:43;;;;;;;0.50;0.50;;;27.60;51.30;;;;;;5029432;28;20422;-66
2022/09/09 10:26:34;;;;;;;0.68;0.57;;;27.60;51.20;;;;;;5029605;28;20477;-65
2022/09/09 10:29:16;;;;;;;0.65;0.60;;;27.60;51.10;;;;;;5029582;28;20028;-65
2022/09/09 10:32:00;;;;;;;0.50;0.50;;;27.60;51.00;;;;;;5029594;28;20025;-66
2022/09/09 10:34:49;;;;;;;0.40;0.40;;;27.70;50.90;;;;;;5029878;28;20116;-66
2022/09/09 10:37:41;;;;;;;0.50;0.50;;;27.70;50.90;;;;;;4995895;28;20053;-64
2022/09/09 10:40:32;;;;;;;0.70;0.50;;;27.60;50.70;;;;;;5030012;28;20025;-65
2022/09/09 10:43:20;;;;;;;0.45;0.45;;;27.70;50.90;;;;;;5030082;28;20065;-65
2022/09/09 10:46:04;;;;;;;0.50;0.50;;;27.70;51.00;;;;;;5030024;28;20089;-65
2022/09/09 10:48:47;;;;;;;0.40;0.40;;;27.70;51.10;;;;;;5030130;28;20485;-64
2022/09/09 10:51:23;;;;;;;0.85;0.50;;;27.70;51.20;;;;;;5030248;28;20041;-65
2022/09/09 10:53:57;;;;;;;0.73;0.50;;;27.80;51.30;;;;;;5029983;28;20437;-65
2022/09/09 10:56:23;;;;;;;0.40;0.40;;;27.70;51.20;;;;;;5030081;28;20105;-64
2022/09/09 10:59:22;;;;;;;0.52;0.50;;;27.80;51.20;;;;;;5031321;28;20021;-66
2022/09/09 11:01:56;;;;;;;0.57;0.47;;;27.80;51.30;;;;;;5015568;28;20397;-66
2022/09/09 11:04:27;;;;;;;0.40;0.40;;;27.80;51.30;;;;;;5033508;28;20022;-64
2022/09/09 11:06:55;;;;;;;0.40;0.40;;;27.80;51.30;;;;;;5033636;28;20048;-64
2022/09/09 11:09:31;;;;;;;0.47;0.47;;;27.80;51.40;;;;;;5033483;28;20029;-64
2022/09/09 11:12:02;;;;;;;0.77;0.52;;;27.80;51.50;;;;;;5033247;28;20032;-65
2022/09/09 11:14:41;;;;;;;0.50;0.50;;;27.90;51.70;;;;;;5033145;28;20099;-64
2022/09/09 11:17:18;;;;;;;0.50;0.50;;;27.90;51.70;;;;;;5030920;28;20519;-64
2022/09/09 11:19:44;;;;;;;0.40;0.40;;;27.90;51.70;;;;;;5033259;28;20029;-64
2022/09/09 11:23:07;;;;;;;0.40;0.40;;;27.90;51.70;;;;;;5032565;28;20037;-64
2022/09/09 11:25:47;;;;;;;0.73;0.50;;;27.90;51.70;;;;;;4991350;28;20510;-65
2022/09/09 11:28:31;;;;;;;0.52;0.50;;;27.90;51.60;;;;;;4991456;28;20034;-64
2022/09/09 11:31:30;;;;;;;0.50;0.50;;;28.00;51.50;;;;;;5019491;28;20057;-64
2022/09/09 11:34:14;;;;;;;0.50;0.50;;;28.00;51.50;;;;;;5032927;28;20125;-64
2022/09/09 11:36:55;;;;;;;0.40;0.40;;;28.10;51.60;;;;;;5032796;28;20029;-64
2022/09/09 11:39:30;;;;;;;0.40;0.40;;;28.00;51.50;;;;;;5032886;28;20031;-65
2022/09/09 11:42:20;;;;;;;0.40;0.40;;;28.00;51.30;;;;;;5031871;28;20075;-64
2022/09/09 11:44:46;;;;;;;0.50;0.50;;;28.10;51.40;;;;;;5024308;28;20042;-64
2022/09/09 11:47:26;;;;;;;0.68;0.50;;;28.10;51.30;;;;;;5032725;28;20389;-64
2022/09/09 11:49:53;;;;;;;0.40;0.40;;;28.10;51.20;;;;;;5031985;28;20021;-65
2022/09/09 11:52:49;;;;;;;0.40;0.40;;;28.10;51.10;;;;;;5032734;28;20040;-64
2022/09/09 11:55:30;;;;;;;0.45;0.45;;;28.10;51.00;;;;;;5012423;28;20048;-64
2022/09/09 11:58:00;;;;;;;0.70;0.63;;;28.10;51.00;;;;;;5032698;28;20029;-64
2022/09/09 12:00:41;;;;;;;0.50;0.50;;;28.10;50.70;;;;;;5031925;28;20048;-64
2022/09/09 12:03:43;;;;;;;0.70;0.60;;;28.10;50.40;;;;;;5032141;28;20029;-64
2022/09/09 12:06:14;;;;;;;0.52;0.50;;;28.10;50.10;;;;;;5030230;28;20045;-64
2022/09/09 12:08:43;;;;;;;0.85;0.60;;;28.10;50.00;;;;;;5032403;28;20109;-64
2022/09/09 12:11:09;;;;;;;0.65;0.50;;;28.10;50.00;;;;;;5031585;28;20112;-64
2022/09/09 12:13:36;;;;;;;1.20;0.80;;;28.10;50.00;;;;;;5032129;28;20112;-64
2022/09/09 12:16:05;;;;;;;0.90;0.60;;;28.10;50.00;;;;;;5032249;28;20680;-64
2022/09/09 12:18:39;;;;;;;0.80;0.60;;;28.10;50.00;;;;;;5031349;28;20021;-64
2022/09/09 12:21:26;;;;;;;0.70;0.60;;;28.00;50.00;;;;;;5030742;28;20128;-64
2022/09/09 12:23:58;;;;;;;0.63;0.60;;;28.00;50.00;;;;;;5032027;28;20049;-64
2022/09/09 12:26:34;;;;;;;0.70;0.60;;;28.00;50.00;;;;;;5032082;28;20028;-64
2022/09/09 12:29:18;;;;;;;1.42;0.60;;;27.90;49.90;;;;;;5030330;28;20029;-64
2022/09/09 12:32:10;;;;;;;0.50;0.50;;;27.90;50.00;;;;;;5013475;28;20038;-65
2022/09/09 12:34:44;;;;;;;0.60;0.50;;;27.90;50.00;;;;;;5029935;28;20034;-65
2022/09/09 12:37:18;;;;;;;2.15;0.70;;;27.80;50.00;;;;;;5032006;28;20388;-65
2022/09/09 12:39:59;;;;;;;0.40;0.40;;;27.80;50.00;;;;;;5030442;28;20077;-65
2022/09/09 12:42:25;;;;;;;0.63;0.60;;;27.80;50.00;;;;;;5031531;28;20033;-65
2022/09/09 12:44:52;;;;;;;0.80;0.80;;;27.80;50.00;;;;;;5031182;28;20045;-64
2022/09/09 12:47:20;;;;;;;0.80;0.60;;;27.70;50.00;;;;;;5031284;28;20504;-65
2022/09/09 12:49:49;;;;;;;0.68;0.60;;;27.70;50.10;;;;;;5030662;28;20029;-64
2022/09/09 12:52:24;;;;;;;;;;;27.70;50.10;;;;;;5031423;28;20033;-64
2022/09/09 12:54:53;;;;;;;0.73;0.43;;;27.70;50.20;;;;;;5031617;28;19945;-65
2022/09/09 12:57:19;;;;;;;;;;;27.70;50.20;;;;;;5031939;28;20477;-64
2022/09/09 12:59:45;;;;;;;0.95;0.50;;;27.60;50.10;;;;;;5031504;28;19944;-65
2022/09/09 13:02:45;;;;;;;0.75;0.60;;;27.70;50.20;;;;;;5030813;28;20520;-64
2022/09/09 13:05:38;;;;;;;0.80;0.60;;;27.60;50.20;;;;;;5031123;28;20543;-65
2022/09/09 13:08:06;;;;;;;0.68;0.50;;;27.60;50.20;;;;;;5027811;28;20071;-64
2022/09/09 13:10:38;;;;;;;0.70;0.65;;;27.60;50.30;;;;;;5031324;28;20529;-64
2022/09/09 13:13:11;;;;;;;0.80;0.60;;;27.60;50.30;;;;;;5030229;28;20025;-64
2022/09/09 13:15:37;;;;;;;0.88;0.50;;;27.50;50.30;;;;;;5031189;28;20140;-65
2022/09/09 13:18:06;;;;;;;0.63;0.50;;;27.50;50.20;;;;;;5031182;28;20529;-65